createdAt,value
2023-11-30T00:01:26.705Z,73.12
2023-11-30T00:03:29.607Z,73.55
2023-11-30T00:05:32.511Z,73.13
2023-11-30T00:07:37.095Z,73.00
2023-11-30T00:09:40.257Z,72.89
2023-11-30T00:11:43.115Z,73.00
2023-11-30T00:13:45.868Z,73.45
2023-11-30T00:15:48.007Z,73.57
2023-11-30T00:17:50.960Z,73.43
2023-11-30T00:19:53.778Z,73.25
2023-11-30T00:21:56.579Z,73.39
2023-11-30T00:24:01.056Z,73.20
2023-11-30T00:26:03.862Z,72.99
2023-11-30T00:28:06.943Z,73.00
2023-11-30T00:30:11.219Z,72.89
2023-11-30T00:32:13.297Z,72.66
2023-11-30T00:34:16.226Z,72.97
2023-11-30T00:36:19.031Z,72.97
2023-11-30T00:38:22.206Z,72.94
2023-11-30T00:40:26.438Z,72.79
2023-11-30T00:42:29.302Z,73.10
2023-11-30T00:44:32.205Z,72.85
2023-11-30T00:46:35.353Z,72.75
2023-11-30T00:48:38.188Z,72.93
2023-11-30T00:50:40.999Z,72.80
2023-11-30T00:52:43.891Z,72.53
2023-11-30T00:54:46.673Z,72.78
2023-11-30T00:56:50.897Z,73.11
2023-11-30T00:58:53.797Z,73.10
2023-11-30T01:00:57.571Z,73.40
2023-11-30T01:03:00.390Z,73.76
2023-11-30T01:05:03.318Z,73.88
2023-11-30T01:07:05.363Z,73.96
2023-11-30T01:09:08.424Z,73.66
2023-11-30T01:11:12.313Z,73.64
2023-11-30T01:13:17.148Z,73.79
2023-11-30T01:15:20.955Z,73.75
2023-11-30T01:17:24.006Z,73.88
2023-11-30T01:19:26.856Z,73.97
2023-11-30T01:21:29.759Z,74.00
2023-11-30T01:23:33.734Z,73.95
2023-11-30T01:25:36.548Z,73.54
2023-11-30T01:27:39.394Z,73.86
2023-11-30T01:29:42.649Z,73.96
2023-11-30T01:31:45.682Z,74.11
2023-11-30T01:33:48.706Z,73.75
2023-11-30T01:35:51.733Z,73.75
2023-11-30T01:37:54.618Z,73.80
2023-11-30T01:39:57.567Z,74.04
2023-11-30T01:42:01.929Z,74.13
2023-11-30T01:44:05.937Z,73.97
2023-11-30T01:46:11.029Z,73.75
2023-11-30T01:48:14.840Z,74.06
2023-11-30T01:50:18.521Z,74.37
2023-11-30T01:52:21.422Z,74.46
2023-11-30T01:54:25.306Z,74.65
2023-11-30T01:56:30.012Z,74.45
2023-11-30T01:58:33.507Z,74.28
2023-11-30T02:00:38.440Z,74.13
2023-11-30T02:02:43.335Z,74.43
2023-11-30T02:04:53.161Z,74.61
2023-11-30T02:06:57.271Z,74.53
2023-11-30T02:09:00.411Z,74.35
2023-11-30T02:11:02.352Z,74.47
2023-11-30T02:13:05.222Z,74.48
2023-11-30T02:15:11.966Z,74.43
2023-11-30T02:17:20.481Z,74.95
2023-11-30T02:19:24.701Z,74.74
2023-11-30T02:21:27.627Z,74.63
2023-11-30T02:23:31.787Z,74.48
2023-11-30T02:25:34.618Z,74.37
2023-11-30T02:27:37.618Z,74.69
2023-11-30T02:29:39.425Z,74.96
2023-11-30T02:31:42.243Z,74.94
2023-11-30T02:33:45.109Z,74.30
2023-11-30T02:35:47.955Z,74.36
2023-11-30T02:37:50.776Z,74.58
2023-11-30T02:39:53.920Z,74.64
2023-11-30T02:41:56.727Z,74.68
2023-11-30T02:43:59.649Z,74.57
2023-11-30T02:46:02.615Z,74.64
2023-11-30T02:48:05.751Z,74.32
2023-11-30T02:50:10.218Z,75.00
2023-11-30T02:52:13.153Z,75.43
2023-11-30T02:54:15.987Z,75.41
2023-11-30T02:56:20.147Z,74.94
2023-11-30T02:58:22.976Z,75.06
2023-11-30T03:00:25.788Z,74.83
2023-11-30T03:02:29.651Z,75.25
2023-11-30T03:04:32.735Z,75.38
2023-11-30T03:06:34.698Z,75.40
2023-11-30T03:08:37.498Z,75.50
2023-11-30T03:10:40.271Z,75.24
2023-11-30T03:12:44.036Z,75.31
2023-11-30T03:14:46.877Z,75.06
2023-11-30T03:16:49.636Z,74.93
2023-11-30T03:19:02.454Z,74.91
2023-11-30T03:21:19.947Z,75.23
2023-11-30T03:23:22.712Z,75.15
2023-11-30T03:25:25.477Z,75.01
2023-11-30T03:27:28.333Z,74.80
2023-11-30T03:29:32.524Z,74.59
2023-11-30T03:31:37.644Z,74.58
2023-11-30T03:33:43.086Z,74.86
2023-11-30T03:35:46.606Z,74.94
2023-11-30T03:37:49.869Z,75.22
2023-11-30T03:39:53.289Z,75.10
2023-11-30T03:41:56.175Z,74.50
2023-11-30T03:43:58.998Z,74.50
2023-11-30T03:46:03.203Z,74.78
2023-11-30T03:48:07.540Z,74.68
2023-11-30T03:50:10.953Z,74.50
2023-11-30T03:52:13.901Z,74.91
2023-11-30T03:54:16.840Z,75.01
2023-11-30T03:56:19.808Z,75.06
2023-11-30T03:58:22.581Z,75.02
2023-11-30T04:00:24.810Z,75.28
2023-11-30T04:02:29.082Z,75.62
2023-11-30T04:04:32.036Z,75.20
2023-11-30T04:06:36.213Z,74.99
2023-11-30T04:08:38.092Z,75.37
2023-11-30T04:10:40.871Z,75.82
2023-11-30T04:12:43.677Z,76.06
2023-11-30T04:14:46.468Z,76.42
2023-11-30T04:16:49.404Z,76.56
2023-11-30T04:18:53.688Z,76.58
2023-11-30T04:20:56.877Z,76.71
2023-11-30T04:22:59.658Z,76.29
2023-11-30T04:25:01.612Z,76.44
2023-11-30T04:27:04.771Z,76.64
2023-11-30T04:29:06.698Z,76.43
2023-11-30T04:31:10.386Z,76.32
2023-11-30T04:33:14.414Z,76.46
2023-11-30T04:35:18.718Z,76.14
2023-11-30T04:37:21.531Z,76.09
2023-11-30T04:39:24.339Z,76.03
2023-11-30T04:41:28.820Z,76.13
2023-11-30T04:43:32.746Z,75.94
2023-11-30T04:45:35.569Z,75.86
2023-11-30T04:47:38.511Z,75.53
2023-11-30T04:49:41.411Z,75.53
2023-11-30T04:51:45.569Z,75.71
2023-11-30T04:53:47.929Z,75.40
2023-11-30T04:55:50.757Z,75.74
2023-11-30T04:57:54.750Z,75.69
2023-11-30T04:59:57.623Z,75.31
2023-11-30T05:01:59.831Z,75.18
2023-11-30T05:04:03.728Z,75.36
2023-11-30T05:06:06.526Z,75.67
2023-11-30T05:08:11.809Z,75.13
2023-11-30T05:10:15.430Z,75.30
2023-11-30T05:12:18.489Z,75.39
2023-11-30T05:14:20.362Z,74.87
2023-11-30T05:16:23.209Z,74.94
2023-11-30T05:18:26.034Z,74.93
2023-11-30T05:20:28.831Z,75.05
2023-11-30T05:22:32.348Z,75.18
2023-11-30T05:24:36.506Z,75.07
2023-11-30T05:26:39.269Z,75.11
2023-11-30T05:28:42.611Z,75.20
2023-11-30T05:30:45.451Z,74.69
2023-11-30T05:32:48.330Z,74.95
2023-11-30T05:34:52.803Z,75.16
2023-11-30T05:36:55.542Z,75.49
2023-11-30T05:38:58.646Z,75.16
2023-11-30T05:41:02.879Z,75.06
2023-11-30T05:43:06.270Z,75.07
2023-11-30T05:45:09.757Z,74.91
2023-11-30T05:47:11.701Z,75.03
2023-11-30T05:49:14.673Z,75.34
2023-11-30T05:51:17.577Z,74.73
2023-11-30T05:53:20.340Z,74.92
2023-11-30T05:55:23.316Z,75.08
2023-11-30T05:57:27.500Z,74.97
2023-11-30T05:59:30.286Z,75.11
2023-11-30T06:01:33.197Z,75.19
2023-11-30T06:03:36.274Z,75.13
2023-11-30T06:05:39.245Z,74.87
2023-11-30T06:07:46.028Z,75.32
2023-11-30T06:09:49.438Z,75.05
2023-11-30T06:11:53.606Z,75.06
2023-11-30T06:13:58.960Z,75.30
2023-11-30T06:16:03.055Z,74.67
2023-11-30T06:18:05.965Z,74.82
2023-11-30T06:20:11.727Z,75.11
2023-11-30T06:22:15.033Z,75.11
2023-11-30T06:24:16.882Z,75.24
2023-11-30T06:26:20.400Z,75.46
2023-11-30T06:28:22.188Z,75.36
2023-11-30T06:30:26.334Z,75.22
2023-11-30T06:32:28.242Z,75.33
2023-11-30T06:34:31.245Z,75.38
2023-11-30T06:36:34.015Z,74.91
2023-11-30T06:38:35.787Z,74.73
2023-11-30T06:40:38.609Z,74.87
2023-11-30T06:42:41.405Z,75.08
2023-11-30T06:44:46.184Z,75.54
2023-11-30T06:46:50.816Z,75.02
2023-11-30T06:48:54.416Z,75.27
2023-11-30T06:50:57.187Z,75.05
2023-11-30T06:53:00.180Z,75.26
2023-11-30T06:55:03.805Z,74.81
2023-11-30T06:57:05.749Z,74.81
2023-11-30T06:59:08.562Z,75.10
2023-11-30T07:01:11.893Z,75.24
2023-11-30T07:03:16.139Z,74.62
2023-11-30T07:05:19.077Z,74.58
2023-11-30T07:07:31.080Z,74.63
2023-11-30T07:09:38.643Z,74.55
2023-11-30T07:11:41.586Z,74.42
2023-11-30T07:13:44.569Z,74.12
2023-11-30T07:15:47.431Z,74.09
2023-11-30T07:17:50.284Z,73.76
2023-11-30T07:19:54.898Z,73.97
2023-11-30T07:21:57.730Z,74.65
2023-11-30T07:24:00.821Z,74.33
2023-11-30T07:26:06.978Z,74.51
2023-11-30T07:28:09.824Z,74.52
2023-11-30T07:30:13.034Z,74.34
2023-11-30T07:32:16.530Z,73.74
2023-11-30T07:34:19.659Z,73.76
2023-11-30T07:36:23.824Z,73.94
2023-11-30T07:38:26.594Z,73.82
2023-11-30T07:40:29.359Z,73.54
2023-11-30T07:42:37.022Z,73.65
2023-11-30T07:44:40.576Z,73.65
2023-11-30T07:46:43.413Z,73.65
2023-11-30T07:48:46.215Z,73.30
2023-11-30T07:50:48.977Z,72.55
2023-11-30T07:52:53.463Z,73.12
2023-11-30T07:54:56.210Z,73.33
2023-11-30T07:57:01.408Z,73.13
2023-11-30T07:59:04.145Z,73.46
2023-11-30T08:01:07.491Z,73.60
2023-11-30T08:03:10.314Z,73.49
2023-11-30T08:05:13.651Z,73.84
2023-11-30T08:07:15.933Z,73.76
2023-11-30T08:09:21.248Z,73.82
2023-11-30T08:11:24.045Z,73.78
2023-11-30T08:13:26.978Z,73.42
2023-11-30T08:15:28.775Z,73.03
2023-11-30T08:17:31.882Z,73.32
2023-11-30T08:19:34.845Z,73.31
2023-11-30T08:21:41.426Z,73.03
2023-11-30T08:23:44.954Z,72.89
2023-11-30T08:25:49.049Z,73.17
2023-11-30T08:27:54.629Z,72.89
2023-11-30T08:29:57.744Z,72.63
2023-11-30T08:32:00.711Z,72.81
2023-11-30T08:34:03.786Z,72.71
2023-11-30T08:36:07.325Z,72.76
2023-11-30T08:38:10.282Z,72.43
2023-11-30T08:40:13.405Z,72.24
2023-11-30T08:42:17.540Z,72.51
2023-11-30T08:44:20.315Z,72.13
2023-11-30T08:46:23.106Z,71.99
2023-11-30T08:48:26.797Z,71.71
2023-11-30T08:50:30.124Z,72.01
2023-11-30T08:52:32.910Z,72.16
2023-11-30T08:54:35.678Z,71.82
2023-11-30T08:56:38.405Z,71.81
2023-11-30T08:58:42.915Z,71.86
2023-11-30T09:00:45.770Z,71.95
2023-11-30T09:02:47.717Z,71.99
2023-11-30T09:04:50.702Z,72.05
2023-11-30T09:06:53.460Z,71.79
2023-11-30T09:08:56.178Z,71.54
2023-11-30T09:10:58.988Z,71.62
2023-11-30T09:13:03.943Z,71.71
2023-11-30T09:15:10.572Z,71.91
2023-11-30T09:17:13.618Z,71.84
2023-11-30T09:19:15.497Z,71.88
2023-11-30T09:21:18.834Z,71.99
2023-11-30T09:23:22.041Z,71.84
2023-11-30T09:25:24.921Z,71.90
2023-11-30T09:27:27.751Z,71.99
2023-11-30T09:29:30.866Z,71.64
2023-11-30T09:31:34.970Z,71.53
2023-11-30T09:33:37.712Z,71.60
2023-11-30T09:35:40.446Z,71.52
2023-11-30T09:37:42.254Z,71.38
2023-11-30T09:39:45.743Z,71.43
2023-11-30T09:41:48.744Z,71.19
2023-11-30T09:43:51.113Z,71.30
2023-11-30T09:45:55.952Z,71.41
2023-11-30T09:48:00.062Z,72.08
2023-11-30T09:50:02.897Z,72.04
2023-11-30T09:52:05.413Z,71.93
2023-11-30T09:54:08.183Z,71.59
2023-11-30T09:56:12.528Z,71.72
2023-11-30T09:58:16.261Z,71.55
2023-11-30T10:00:21.471Z,72.05
2023-11-30T10:02:26.748Z,71.88
2023-11-30T10:04:31.113Z,72.30
2023-11-30T10:06:33.876Z,72.53
2023-11-30T10:08:35.668Z,72.14
2023-11-30T10:10:38.381Z,72.18
2023-11-30T10:12:41.158Z,72.29
2023-11-30T10:14:43.962Z,72.68
2023-11-30T10:16:46.870Z,72.51
2023-11-30T10:18:50.055Z,72.82
2023-11-30T10:20:54.274Z,72.83
2023-11-30T10:22:57.035Z,73.08
2023-11-30T10:24:59.770Z,72.67
2023-11-30T10:27:07.384Z,72.46
2023-11-30T10:29:12.188Z,71.87
2023-11-30T10:31:18.639Z,71.79
2023-11-30T10:33:24.043Z,71.42
2023-11-30T10:35:29.921Z,71.21
2023-11-30T10:37:35.286Z,71.71
2023-11-30T10:39:43.868Z,71.59
2023-11-30T10:41:53.263Z,71.56
2023-11-30T10:43:57.476Z,71.04
2023-11-30T10:46:01.511Z,70.76
2023-11-30T10:48:04.804Z,70.94
2023-11-30T10:50:09.963Z,71.14
2023-11-30T10:52:13.007Z,71.22
2023-11-30T10:54:24.784Z,70.96
2023-11-30T10:56:28.704Z,70.97
2023-11-30T10:58:34.555Z,70.74
2023-11-30T11:00:37.597Z,70.59
2023-11-30T11:02:45.185Z,70.64
2023-11-30T11:04:48.547Z,71.00
2023-11-30T11:06:50.502Z,71.04
2023-11-30T11:09:03.023Z,70.88
2023-11-30T11:11:11.923Z,71.07
2023-11-30T11:13:20.529Z,71.09
2023-11-30T11:15:24.820Z,71.05
2023-11-30T11:17:29.012Z,70.98
2023-11-30T11:19:33.060Z,70.71
2023-11-30T11:21:40.525Z,71.06
2023-11-30T11:23:44.319Z,70.99
2023-11-30T11:25:48.304Z,71.15
2023-11-30T11:27:52.681Z,70.83
2023-11-30T11:29:56.358Z,70.62
2023-11-30T11:32:00.227Z,70.69
2023-11-30T11:34:03.369Z,70.75
2023-11-30T11:36:06.895Z,70.48
2023-11-30T11:38:10.055Z,70.31
2023-11-30T11:40:13.065Z,70.35
2023-11-30T11:42:15.013Z,70.25
2023-11-30T11:44:20.702Z,70.03
2023-11-30T11:46:24.869Z,69.81
2023-11-30T11:48:27.712Z,69.96
2023-11-30T11:50:30.496Z,69.58
2023-11-30T11:52:33.336Z,69.58
2023-11-30T11:54:36.296Z,69.96
2023-11-30T11:56:46.283Z,69.94
2023-11-30T11:58:49.002Z,69.67
2023-11-30T12:00:57.025Z,69.92
2023-11-30T12:03:07.605Z,69.77
2023-11-30T12:05:11.826Z,69.84
2023-11-30T12:07:17.415Z,69.92
2023-11-30T12:09:20.907Z,69.78
2023-11-30T12:11:23.696Z,70.14
2023-11-30T12:13:28.093Z,70.24
2023-11-30T12:15:31.514Z,70.20
2023-11-30T12:17:35.687Z,70.30
2023-11-30T12:19:38.656Z,70.28
2023-11-30T12:21:41.887Z,70.47
2023-11-30T12:23:44.901Z,70.50
2023-11-30T12:25:47.662Z,70.58
2023-11-30T12:27:51.327Z,70.89
2023-11-30T12:29:54.217Z,70.85
2023-11-30T12:31:57.161Z,71.15
2023-11-30T12:34:01.963Z,71.26
2023-11-30T12:36:05.149Z,71.26
2023-11-30T12:38:08.148Z,71.54
2023-11-30T12:40:11.516Z,71.71
2023-11-30T12:42:14.413Z,71.91
2023-11-30T12:44:17.246Z,72.12
2023-11-30T12:46:21.272Z,72.17
2023-11-30T12:48:24.087Z,72.28
2023-11-30T12:50:28.269Z,72.30
2023-11-30T12:52:31.008Z,72.33
2023-11-30T12:54:33.924Z,72.24
2023-11-30T12:56:36.718Z,72.55
2023-11-30T12:58:38.537Z,72.39
2023-11-30T13:00:42.497Z,72.59
2023-11-30T13:02:48.540Z,72.64
2023-11-30T13:04:52.037Z,72.79
2023-11-30T13:06:56.560Z,73.01
2023-11-30T13:08:59.353Z,73.05
2023-11-30T13:11:02.297Z,73.11
2023-11-30T13:13:06.615Z,73.09
2023-11-30T13:15:12.266Z,72.84
2023-11-30T13:17:17.974Z,72.91
2023-11-30T13:19:24.101Z,73.29
2023-11-30T13:21:28.619Z,73.65
2023-11-30T13:23:32.723Z,74.16
2023-11-30T13:25:35.831Z,73.92
2023-11-30T13:27:39.024Z,74.55
2023-11-30T13:29:41.865Z,74.72
2023-11-30T13:31:44.906Z,74.56
2023-11-30T13:33:47.752Z,74.77
2023-11-30T13:35:50.538Z,74.87
2023-11-30T13:37:53.525Z,75.21
2023-11-30T13:39:57.623Z,74.97
2023-11-30T13:42:00.925Z,74.86
2023-11-30T13:44:02.719Z,74.79
2023-11-30T13:46:06.950Z,74.99
2023-11-30T13:48:09.823Z,75.18
2023-11-30T13:50:25.586Z,75.23
2023-11-30T13:52:33.640Z,75.15
2023-11-30T13:54:36.502Z,75.16
2023-11-30T13:56:40.989Z,75.04
2023-11-30T13:58:43.924Z,75.34
2023-11-30T14:00:46.924Z,75.08
2023-11-30T14:02:49.814Z,75.30
2023-11-30T14:04:52.611Z,75.59
2023-11-30T14:06:58.047Z,75.48
2023-11-30T14:09:00.911Z,75.45
2023-11-30T14:11:04.811Z,75.57
2023-11-30T14:13:09.189Z,75.49
2023-11-30T14:15:13.052Z,75.30
2023-11-30T14:17:17.400Z,75.36
2023-11-30T14:19:20.337Z,75.66
2023-11-30T14:21:23.104Z,75.58
2023-11-30T14:23:25.073Z,75.53
2023-11-30T14:25:29.073Z,75.63
2023-11-30T14:27:31.923Z,75.59
2023-11-30T14:29:35.960Z,75.39
2023-11-30T14:31:38.666Z,75.50
2023-11-30T14:33:40.710Z,75.52
2023-11-30T14:35:43.612Z,75.86
2023-11-30T14:37:45.503Z,75.93
2023-11-30T14:39:48.480Z,75.73
2023-11-30T14:41:51.288Z,75.99
2023-11-30T14:43:53.082Z,76.17
2023-11-30T14:45:57.311Z,76.25
2023-11-30T14:48:01.619Z,76.48
2023-11-30T14:50:05.131Z,76.67
2023-11-30T14:52:08.400Z,76.75
2023-11-30T14:54:11.362Z,76.63
2023-11-30T14:56:13.225Z,76.83
2023-11-30T14:58:16.000Z,76.82
2023-11-30T15:00:22.168Z,77.14
2023-11-30T15:02:26.583Z,77.05
2023-11-30T15:04:29.735Z,77.15
2023-11-30T15:06:33.143Z,76.98
2023-11-30T15:08:36.829Z,77.23
2023-11-30T15:10:39.703Z,77.32
2023-11-30T15:12:42.784Z,77.31
2023-11-30T15:14:45.708Z,77.29
2023-11-30T15:16:49.875Z,77.28
2023-11-30T15:18:54.146Z,77.16
2023-11-30T15:20:56.935Z,77.47
2023-11-30T15:22:59.717Z,77.69
2023-11-30T15:25:01.587Z,77.21
2023-11-30T15:27:04.768Z,77.53
2023-11-30T15:29:07.508Z,77.54
2023-11-30T15:31:10.753Z,77.37
2023-11-30T15:33:14.174Z,77.51
2023-11-30T15:35:18.251Z,77.41
2023-11-30T15:37:21.065Z,77.43
2023-11-30T15:39:25.341Z,77.44
2023-11-30T15:41:28.226Z,77.36
2023-11-30T15:43:31.693Z,77.48
2023-11-30T15:45:34.601Z,77.54
2023-11-30T15:47:37.508Z,77.37
2023-11-30T15:49:41.949Z,77.48
2023-11-30T15:51:49.925Z,77.38
2023-11-30T15:53:52.864Z,77.60
2023-11-30T15:55:55.980Z,76.54
2023-11-30T15:57:58.766Z,77.17
2023-11-30T16:00:01.601Z,77.41
2023-11-30T16:02:15.261Z,77.46
2023-11-30T16:04:18.196Z,77.53
2023-11-30T16:06:21.644Z,78.13
2023-11-30T16:08:25.863Z,77.91
2023-11-30T16:10:28.639Z,78.16
2023-11-30T16:12:31.154Z,78.34
2023-11-30T16:14:34.807Z,78.39
2023-11-30T16:16:40.637Z,78.21
2023-11-30T16:18:43.706Z,78.49
2023-11-30T16:20:46.813Z,78.40
2023-11-30T16:22:49.668Z,78.37
2023-11-30T16:24:54.100Z,78.15
2023-11-30T16:26:57.289Z,78.11
2023-11-30T16:29:00.012Z,77.75
2023-11-30T16:31:03.132Z,77.60
2023-11-30T16:33:06.275Z,77.93
2023-11-30T16:35:09.879Z,78.19
2023-11-30T16:37:13.025Z,77.93
2023-11-30T16:39:16.105Z,78.06
2023-11-30T16:41:20.760Z,78.16
2023-11-30T16:43:23.902Z,78.01
2023-11-30T16:45:27.699Z,78.13
2023-11-30T16:47:31.701Z,78.23
2023-11-30T16:49:34.540Z,78.17
2023-11-30T16:51:41.664Z,78.36
2023-11-30T16:53:46.627Z,78.40
2023-11-30T16:55:49.402Z,78.49
2023-11-30T16:57:53.553Z,78.39
2023-11-30T16:59:55.841Z,78.65
2023-11-30T17:01:59.391Z,77.83
2023-11-30T17:04:03.445Z,78.32
2023-11-30T17:06:06.418Z,78.27
2023-11-30T17:08:09.415Z,78.65
2023-11-30T17:10:11.185Z,78.93
2023-11-30T17:12:13.869Z,78.95
2023-11-30T17:14:18.003Z,78.82
2023-11-30T17:16:19.915Z,78.80
2023-11-30T17:18:22.904Z,78.71
2023-11-30T17:20:25.737Z,78.63
2023-11-30T17:22:28.532Z,78.78
2023-11-30T17:24:33.505Z,78.37
2023-11-30T17:26:36.380Z,78.23
2023-11-30T17:28:38.142Z,78.16
2023-11-30T17:30:42.464Z,78.54
2023-11-30T17:32:45.256Z,78.82
2023-11-30T17:34:48.241Z,78.84
2023-11-30T17:36:51.988Z,79.09
2023-11-30T17:38:54.721Z,79.47
2023-11-30T17:40:57.649Z,79.21
2023-11-30T17:43:00.410Z,79.20
2023-11-30T17:45:03.147Z,79.17
2023-11-30T17:47:07.475Z,79.40
2023-11-30T17:49:10.395Z,78.78
2023-11-30T17:51:18.821Z,78.84
2023-11-30T17:53:21.841Z,79.20
2023-11-30T17:55:24.639Z,79.27
2023-11-30T17:57:27.494Z,79.16
2023-11-30T17:59:30.283Z,79.08
2023-11-30T18:01:33.117Z,79.21
2023-11-30T18:03:37.314Z,79.36
2023-11-30T18:05:41.074Z,79.10
2023-11-30T18:07:43.805Z,79.29
2023-11-30T18:09:47.087Z,79.25
2023-11-30T18:11:49.839Z,79.23
2023-11-30T18:13:52.547Z,79.00
2023-11-30T18:15:56.282Z,78.66
2023-11-30T18:17:59.918Z,78.84
2023-11-30T18:20:04.419Z,78.71
2023-11-30T18:22:07.421Z,78.71
2023-11-30T18:24:10.272Z,78.56
2023-11-30T18:26:13.131Z,78.68
2023-11-30T18:28:15.978Z,78.57
2023-11-30T18:30:19.024Z,78.70
2023-11-30T18:32:21.987Z,78.65
2023-11-30T18:34:24.905Z,78.54
2023-11-30T18:36:29.140Z,78.46
2023-11-30T18:38:37.064Z,78.22
2023-11-30T18:40:43.158Z,78.16
2023-11-30T18:42:46.679Z,78.21
2023-11-30T18:44:49.478Z,78.24
2023-11-30T18:46:52.320Z,78.59
2023-11-30T18:48:55.220Z,78.62
2023-11-30T18:50:58.100Z,78.59
2023-11-30T18:53:02.355Z,78.50
2023-11-30T18:55:05.979Z,78.39
2023-11-30T18:57:08.768Z,78.44
2023-11-30T18:59:11.966Z,78.46
2023-11-30T19:01:16.353Z,78.67
2023-11-30T19:03:19.305Z,78.75
2023-11-30T19:05:22.417Z,78.68
2023-11-30T19:07:25.455Z,78.47
2023-11-30T19:09:29.542Z,78.71
2023-11-30T19:11:32.237Z,78.79
2023-11-30T19:13:36.087Z,78.91
2023-11-30T19:15:42.323Z,78.91
2023-11-30T19:17:49.095Z,79.22
2023-11-30T19:19:52.102Z,78.90
2023-11-30T19:21:54.975Z,79.08
2023-11-30T19:23:57.823Z,79.11
2023-11-30T19:26:01.297Z,79.38
2023-11-30T19:28:04.329Z,79.46
2023-11-30T19:30:08.368Z,79.35
2023-11-30T19:32:11.144Z,79.37
2023-11-30T19:34:15.301Z,79.45
2023-11-30T19:36:18.206Z,79.58
2023-11-30T19:38:27.463Z,79.91
2023-11-30T19:40:30.505Z,79.91
2023-11-30T19:42:34.690Z,79.82
2023-11-30T19:44:37.523Z,79.71
2023-11-30T19:46:40.350Z,79.83
2023-11-30T19:48:45.201Z,79.59
2023-11-30T19:50:48.174Z,79.79
2023-11-30T19:52:50.025Z,79.91
2023-11-30T19:54:52.906Z,80.00
2023-11-30T19:56:57.051Z,79.75
2023-11-30T19:59:02.078Z,79.57
2023-11-30T20:01:04.264Z,79.59
2023-11-30T20:03:07.195Z,79.35
2023-11-30T20:05:10.501Z,79.63
2023-11-30T20:07:13.243Z,79.26
2023-11-30T20:09:16.105Z,79.46
2023-11-30T20:11:20.876Z,79.32
2023-11-30T20:13:23.667Z,79.69
2023-11-30T20:15:29.330Z,79.59
2023-11-30T20:17:31.278Z,79.53
2023-11-30T20:19:36.135Z,79.36
2023-11-30T20:21:37.986Z,79.93
2023-11-30T20:23:40.773Z,79.85
2023-11-30T20:25:43.608Z,79.67
2023-11-30T20:27:45.702Z,79.84
2023-11-30T20:29:48.646Z,79.65
2023-11-30T20:31:52.748Z,79.65
2023-11-30T20:33:55.759Z,79.66
2023-11-30T20:35:59.101Z,79.64
2023-11-30T20:38:02.386Z,79.57
2023-11-30T20:40:05.985Z,79.77
2023-11-30T20:42:09.162Z,79.50
2023-11-30T20:44:16.281Z,79.50
2023-11-30T20:46:20.950Z,79.62
2023-11-30T20:48:26.733Z,79.89
2023-11-30T20:50:29.536Z,79.32
2023-11-30T20:52:34.697Z,79.69
2023-11-30T20:54:38.210Z,79.76
2023-11-30T20:56:41.073Z,80.01
2023-11-30T20:58:46.591Z,80.12
2023-11-30T21:00:51.461Z,80.16
2023-11-30T21:02:54.497Z,80.15
2023-11-30T21:04:58.918Z,80.11
2023-11-30T21:07:01.740Z,80.03
2023-11-30T21:09:05.442Z,80.07
2023-11-30T21:11:08.649Z,80.17
2023-11-30T21:13:11.720Z,80.52
2023-11-30T21:15:15.065Z,80.28
2023-11-30T21:17:18.380Z,80.24
2023-11-30T21:19:21.585Z,80.40
2023-11-30T21:21:24.886Z,80.79
2023-11-30T21:23:27.858Z,80.72
2023-11-30T21:25:31.236Z,80.39
2023-11-30T21:27:34.864Z,80.31
2023-11-30T21:29:37.652Z,80.45
2023-11-30T21:31:40.645Z,80.04
2023-11-30T21:33:43.627Z,80.34
2023-11-30T21:35:45.434Z,80.63
2023-11-30T21:37:49.552Z,80.76
2023-11-30T21:39:52.416Z,80.49
2023-11-30T21:41:55.254Z,80.40
2023-11-30T21:43:58.252Z,80.08
2023-11-30T21:46:01.054Z,79.70
2023-11-30T21:48:04.015Z,80.00
2023-11-30T21:50:15.036Z,79.86
2023-11-30T21:52:18.393Z,80.03
2023-11-30T21:54:22.539Z,79.86
2023-11-30T21:56:25.376Z,79.56
2023-11-30T21:58:28.134Z,79.52
2023-11-30T22:00:31.009Z,79.54
2023-11-30T22:02:33.865Z,79.52
2023-11-30T22:04:36.894Z,79.41
2023-11-30T22:06:40.378Z,79.39
2023-11-30T22:08:43.211Z,79.17
2023-11-30T22:10:47.460Z,79.14
2023-11-30T22:12:49.330Z,79.27
2023-11-30T22:14:52.108Z,79.17
2023-11-30T22:16:54.962Z,79.29
2023-11-30T22:18:58.347Z,78.90
2023-11-30T22:21:01.254Z,78.96
2023-11-30T22:23:04.023Z,78.74
2023-11-30T22:25:07.737Z,78.99
2023-11-30T22:27:10.913Z,78.84
2023-11-30T22:29:13.718Z,78.67
2023-11-30T22:31:16.823Z,79.04
2023-11-30T22:33:19.630Z,79.22
2023-11-30T22:35:22.460Z,79.35
2023-11-30T22:37:25.331Z,79.01
2023-11-30T22:39:28.257Z,79.15
2023-11-30T22:41:30.230Z,78.79
2023-11-30T22:43:34.372Z,79.18
2023-11-30T22:45:37.179Z,79.21
2023-11-30T22:47:40.029Z,79.00
2023-11-30T22:49:42.898Z,78.99
2023-11-30T22:51:46.000Z,78.96
2023-11-30T22:53:48.842Z,79.25
2023-11-30T22:55:51.636Z,79.51
2023-11-30T22:57:54.509Z,79.42
2023-11-30T22:59:58.642Z,79.36
2023-11-30T23:02:01.608Z,79.67
2023-11-30T23:04:04.655Z,79.64
2023-11-30T23:06:07.919Z,79.91
2023-11-30T23:08:10.646Z,80.11
2023-11-30T23:10:17.719Z,80.15
2023-11-30T23:12:20.488Z,80.28
2023-11-30T23:14:23.521Z,80.76
2023-11-30T23:16:28.165Z,81.10
2023-11-30T23:18:32.976Z,81.08
2023-11-30T23:20:35.946Z,81.65
2023-11-30T23:22:38.847Z,81.77
2023-11-30T23:24:42.651Z,81.85
2023-11-30T23:26:45.595Z,81.80
2023-11-30T23:28:48.435Z,81.82
2023-11-30T23:30:51.255Z,81.79
2023-11-30T23:32:55.942Z,81.92
2023-11-30T23:34:58.818Z,81.58
2023-11-30T23:37:01.646Z,81.82
2023-11-30T23:39:05.543Z,81.64
2023-11-30T23:41:07.575Z,81.95
2023-11-30T23:43:10.469Z,82.13
2023-11-30T23:45:13.495Z,81.94
2023-11-30T23:47:16.290Z,81.64
2023-11-30T23:49:20.395Z,81.94
2023-11-30T23:51:23.153Z,81.88
2023-11-30T23:53:26.240Z,82.02
2023-11-30T23:55:29.163Z,81.79
2023-11-30T23:57:32.150Z,82.06
2023-11-30T23:59:35.172Z,82.00
